createdAt,value
2023-02-24T00:00:38.772Z,81.10
2023-02-24T00:03:16.654Z,81.34
2023-02-24T00:05:48.388Z,81.55
2023-02-24T00:08:16.461Z,81.70
2023-02-24T00:10:44.738Z,81.64
2023-02-24T00:13:12.698Z,81.64
2023-02-24T00:15:40.900Z,82.14
2023-02-24T00:18:09.866Z,82.00
2023-02-24T00:20:37.957Z,81.95
2023-02-24T00:23:05.909Z,81.86
2023-02-24T00:25:33.973Z,82.02
2023-02-24T00:28:02.587Z,81.82
2023-02-24T00:30:33.328Z,81.73
2023-02-24T00:33:02.797Z,81.82
2023-02-24T00:35:32.557Z,81.58
2023-02-24T00:38:01.018Z,81.48
2023-02-24T00:40:30.969Z,81.77
2023-02-24T00:43:00.834Z,81.88
2023-02-24T00:45:31.166Z,81.94
2023-02-24T00:47:59.452Z,81.79
2023-02-24T00:50:27.609Z,81.86
2023-02-24T00:52:55.770Z,81.58
2023-02-24T00:55:24.048Z,81.71
2023-02-24T00:57:52.117Z,81.94
2023-02-24T01:00:20.834Z,81.91
2023-02-24T01:02:49.087Z,81.76
2023-02-24T01:05:17.163Z,81.76
2023-02-24T01:07:45.123Z,81.66
2023-02-24T01:10:13.190Z,81.92
2023-02-24T01:12:50.270Z,81.80
2023-02-24T01:15:21.376Z,81.75
2023-02-24T01:17:49.492Z,81.53
2023-02-24T01:20:19.152Z,81.80
2023-02-24T01:22:50.358Z,81.91
2023-02-24T01:25:20.751Z,81.81
2023-02-24T01:27:49.186Z,81.87
2023-02-24T01:30:18.531Z,82.06
2023-02-24T01:32:47.738Z,82.18
2023-02-24T01:35:16.481Z,82.00
2023-02-24T01:37:45.822Z,82.18
2023-02-24T01:40:20.954Z,82.19
2023-02-24T01:42:49.971Z,82.19
2023-02-24T01:45:36.868Z,82.34
2023-02-24T01:48:08.550Z,82.18
2023-02-24T01:50:38.738Z,82.19
2023-02-24T01:53:08.649Z,82.16
2023-02-24T01:55:43.651Z,82.24
2023-02-24T01:58:22.548Z,82.33
2023-02-24T02:00:51.942Z,82.25
2023-02-24T02:03:35.663Z,82.38
2023-02-24T02:06:09.270Z,82.61
2023-02-24T02:08:42.869Z,82.63
2023-02-24T02:11:14.933Z,82.80
2023-02-24T02:13:45.882Z,82.93
2023-02-24T02:16:28.236Z,83.02
2023-02-24T02:19:23.035Z,82.75
2023-02-24T02:22:09.782Z,82.96
2023-02-24T02:25:12.591Z,82.89
2023-02-24T02:28:20.062Z,83.23
2023-02-24T02:31:16.344Z,83.00
2023-02-24T02:33:44.576Z,83.29
2023-02-24T02:36:32.016Z,83.59
2023-02-24T02:39:06.223Z,83.55
2023-02-24T02:41:51.201Z,83.72
2023-02-24T02:44:19.153Z,83.71
2023-02-24T02:47:00.739Z,83.77
2023-02-24T02:49:42.389Z,83.69
2023-02-24T02:52:18.068Z,83.89
2023-02-24T02:54:57.810Z,83.94
2023-02-24T02:57:31.733Z,83.80
2023-02-24T03:00:12.451Z,83.79
2023-02-24T03:02:47.319Z,83.77
2023-02-24T03:05:20.378Z,83.74
2023-02-24T03:07:55.026Z,83.66
2023-02-24T03:10:27.855Z,84.10
2023-02-24T03:12:59.881Z,83.98
2023-02-24T03:15:33.742Z,84.05
2023-02-24T03:18:10.682Z,83.95
2023-02-24T03:20:44.156Z,84.01
2023-02-24T03:23:16.961Z,84.10
2023-02-24T03:26:06.410Z,84.13
2023-02-24T03:28:37.620Z,84.06
2023-02-24T03:31:19.290Z,84.32
2023-02-24T03:34:16.195Z,84.31
2023-02-24T03:36:44.709Z,84.56
2023-02-24T03:39:12.948Z,84.35
2023-02-24T03:41:58.121Z,84.92
2023-02-24T03:44:29.064Z,84.75
2023-02-24T03:46:57.130Z,85.03
2023-02-24T03:49:25.630Z,85.08
2023-02-24T03:52:09.062Z,85.15
2023-02-24T03:54:59.478Z,85.25
2023-02-24T03:57:28.124Z,85.56
2023-02-24T03:59:58.043Z,85.85
2023-02-24T04:02:33.121Z,85.77
2023-02-24T04:05:37.908Z,86.04
2023-02-24T04:08:09.354Z,86.46
2023-02-24T04:10:58.723Z,86.50
2023-02-24T04:13:43.708Z,86.76
2023-02-24T04:16:18.822Z,86.70
2023-02-24T04:18:51.922Z,86.66
2023-02-24T04:21:23.252Z,87.08
2023-02-24T04:23:51.742Z,87.19
2023-02-24T04:26:20.962Z,87.07
2023-02-24T04:28:49.112Z,87.25
2023-02-24T04:31:21.888Z,87.30
2023-02-24T04:33:53.590Z,87.67
2023-02-24T04:36:27.544Z,87.79
2023-02-24T04:38:55.845Z,87.86
2023-02-24T04:41:24.828Z,87.93
2023-02-24T04:43:52.811Z,88.09
2023-02-24T04:46:20.917Z,88.49
2023-02-24T04:48:51.704Z,88.43
2023-02-24T04:51:21.294Z,88.38
2023-02-24T04:53:50.212Z,88.73
2023-02-24T04:56:19.018Z,88.70
2023-02-24T04:58:47.062Z,88.88
2023-02-24T05:01:15.383Z,88.94
2023-02-24T05:03:43.613Z,89.03
2023-02-24T05:06:16.209Z,89.15
2023-02-24T05:08:45.389Z,89.22
2023-02-24T05:11:19.274Z,89.49
2023-02-24T05:13:47.889Z,89.88
2023-02-24T05:16:18.417Z,89.73
2023-02-24T05:18:46.920Z,90.01
2023-02-24T05:21:36.171Z,90.12
2023-02-24T05:24:07.130Z,90.44
2023-02-24T05:26:37.738Z,90.56
2023-02-24T05:29:07.737Z,90.58
2023-02-24T05:31:37.449Z,90.99
2023-02-24T05:34:08.333Z,91.13
2023-02-24T05:36:41.016Z,91.23
2023-02-24T05:39:12.902Z,91.31
2023-02-24T05:41:43.582Z,91.33
2023-02-24T05:44:22.806Z,91.27
2023-02-24T05:46:58.998Z,91.47
2023-02-24T05:49:33.884Z,91.53
2023-02-24T05:52:08.199Z,91.56
2023-02-24T05:54:45.327Z,91.72
2023-02-24T05:57:17.504Z,91.96
2023-02-24T05:59:46.135Z,92.01
2023-02-24T06:02:16.394Z,92.15
2023-02-24T06:04:51.424Z,91.92
2023-02-24T06:07:27.112Z,92.07
2023-02-24T06:09:57.573Z,92.27
2023-02-24T06:12:32.127Z,92.18
2023-02-24T06:15:01.153Z,92.43
2023-02-24T06:17:29.762Z,92.38
2023-02-24T06:19:58.150Z,92.37
2023-02-24T06:22:27.089Z,92.24
2023-02-24T06:24:57.363Z,92.48
2023-02-24T06:27:26.374Z,92.76
2023-02-24T06:29:55.449Z,92.81
2023-02-24T06:32:26.265Z,92.98
2023-02-24T06:34:55.521Z,92.95
2023-02-24T06:37:24.925Z,93.06
2023-02-24T06:39:53.062Z,93.11
2023-02-24T06:42:21.138Z,93.12
2023-02-24T06:44:50.706Z,93.20
2023-02-24T06:47:18.713Z,93.30
2023-02-24T06:49:48.127Z,93.05
2023-02-24T06:52:19.343Z,93.12
2023-02-24T06:54:49.806Z,93.28
2023-02-24T06:57:18.683Z,93.29
2023-02-24T06:59:49.152Z,93.47
2023-02-24T07:02:17.865Z,93.48
2023-02-24T07:04:46.065Z,93.42
2023-02-24T07:07:17.724Z,93.68
2023-02-24T07:09:45.896Z,93.58
2023-02-24T07:12:15.735Z,93.64
2023-02-24T07:14:44.208Z,93.51
2023-02-24T07:17:14.909Z,93.53
2023-02-24T07:19:44.318Z,93.46
2023-02-24T07:22:14.866Z,93.35
2023-02-24T07:24:46.492Z,93.38
2023-02-24T07:27:23.001Z,93.31
2023-02-24T07:29:53.226Z,93.32
2023-02-24T07:32:22.909Z,93.20
2023-02-24T07:34:51.279Z,93.27
2023-02-24T07:37:20.831Z,93.19
2023-02-24T07:39:48.859Z,93.24
2023-02-24T07:42:16.940Z,93.23
2023-02-24T07:44:46.977Z,92.99
2023-02-24T07:47:16.332Z,93.31
2023-02-24T07:49:45.744Z,93.11
2023-02-24T07:52:14.014Z,93.08
2023-02-24T07:54:41.995Z,93.25
2023-02-24T07:57:14.246Z,93.29
2023-02-24T07:59:45.810Z,93.43
2023-02-24T08:02:14.180Z,93.20
2023-02-24T08:04:50.372Z,93.25
2023-02-24T08:07:25.240Z,93.14
2023-02-24T08:10:13.809Z,93.30
2023-02-24T08:12:43.047Z,93.30
2023-02-24T08:15:18.621Z,93.25
2023-02-24T08:17:47.768Z,93.39
2023-02-24T08:20:16.147Z,93.40
2023-02-24T08:22:52.299Z,93.38
2023-02-24T08:25:24.788Z,93.30
2023-02-24T08:28:07.498Z,93.48
2023-02-24T08:30:40.900Z,93.16
2023-02-24T08:33:20.978Z,93.45
2023-02-24T08:36:01.322Z,93.26
2023-02-24T08:38:45.146Z,92.81
2023-02-24T08:41:18.417Z,93.08
2023-02-24T08:43:48.460Z,93.26
2023-02-24T08:46:21.350Z,93.11
2023-02-24T08:48:55.769Z,92.99
2023-02-24T08:51:28.946Z,93.00
2023-02-24T08:54:00.891Z,92.93
2023-02-24T08:56:34.570Z,92.99
2023-02-24T08:59:06.502Z,92.68
2023-02-24T09:01:39.942Z,92.58
2023-02-24T09:04:11.649Z,92.69
2023-02-24T09:06:44.590Z,92.51
2023-02-24T09:09:17.679Z,92.72
2023-02-24T09:11:48.477Z,92.99
2023-02-24T09:14:28.948Z,92.68
2023-02-24T09:17:11.939Z,92.63
2023-02-24T09:20:01.830Z,92.49
2023-02-24T09:30:08.333Z,92.63
2023-02-24T09:32:36.565Z,92.51
2023-02-24T09:35:05.405Z,92.50
2023-02-24T09:37:33.354Z,92.69
2023-02-24T09:40:33.589Z,92.60
2023-02-24T09:43:11.319Z,92.62
2023-02-24T09:45:41.112Z,92.47
2023-02-24T09:48:21.348Z,92.31
2023-02-24T09:51:05.201Z,92.50
2023-02-24T09:53:41.679Z,92.31
2023-02-24T09:56:37.428Z,92.14
2023-02-24T09:59:10.539Z,92.20
2023-02-24T10:02:10.338Z,92.32
2023-02-24T10:05:07.437Z,92.31
2023-02-24T10:10:28.387Z,92.66
2023-02-24T10:13:30.627Z,92.46
2023-02-24T10:16:13.204Z,92.24
2023-02-24T10:19:12.034Z,92.17
2023-02-24T10:22:00.573Z,92.15
2023-02-24T10:25:01.596Z,92.44
2023-02-24T10:27:41.450Z,92.22
2023-02-24T10:30:41.216Z,92.05
2023-02-24T10:33:20.716Z,92.39
2023-02-24T10:35:50.432Z,92.30
2023-02-24T10:38:18.428Z,92.66
2023-02-24T10:40:56.897Z,93.02
2023-02-24T10:43:30.394Z,92.70
2023-02-24T10:46:06.710Z,92.82
2023-02-24T10:48:42.582Z,92.72
2023-02-24T10:51:30.576Z,93.02
2023-02-24T10:54:31.346Z,92.91
2023-02-24T10:57:38.313Z,92.93
2023-02-24T11:00:18.563Z,92.97
2023-02-24T11:03:10.790Z,92.95
2023-02-24T11:06:04.894Z,92.99
2023-02-24T11:08:44.323Z,93.21
2023-02-24T11:11:26.193Z,92.73
2023-02-24T11:14:14.438Z,92.80
2023-02-24T11:17:12.281Z,93.23
2023-02-24T11:19:56.462Z,93.15
2023-02-24T11:22:32.431Z,92.82
2023-02-24T11:25:07.825Z,92.88
2023-02-24T11:27:36.341Z,92.54
2023-02-24T11:30:15.163Z,92.26
2023-02-24T11:32:49.968Z,92.28
2023-02-24T11:35:37.313Z,92.12
2023-02-24T11:38:17.829Z,92.12
2023-02-24T11:40:53.652Z,91.84
2023-02-24T11:43:28.303Z,91.89
2023-02-24T11:46:07.403Z,91.70
2023-02-24T11:48:38.322Z,91.51
2023-02-24T11:51:18.597Z,91.69
2023-02-24T11:54:00.700Z,91.65
2023-02-24T11:56:38.785Z,90.89
2023-02-24T11:59:25.377Z,90.94
2023-02-24T12:02:06.362Z,91.00
2023-02-24T12:04:54.915Z,90.64
2023-02-24T12:07:30.007Z,89.93
2023-02-24T12:10:17.366Z,90.14
2023-02-24T12:13:07.055Z,90.06
2023-02-24T12:15:48.892Z,90.13
2023-02-24T12:18:34.283Z,90.32
2023-02-24T12:21:19.426Z,89.95
2023-02-24T12:23:51.005Z,89.66
2023-02-24T12:26:55.870Z,89.30
2023-02-24T12:29:42.576Z,88.93
2023-02-24T12:32:25.344Z,88.20
2023-02-24T12:35:21.870Z,87.14
2023-02-24T12:37:51.363Z,86.14
2023-02-24T12:40:40.416Z,86.48
2023-02-24T12:43:39.915Z,86.25
2023-02-24T12:46:27.137Z,85.51
2023-02-24T12:49:13.653Z,84.76
2023-02-24T12:51:50.719Z,84.39
2023-02-24T12:54:30.074Z,84.62
2023-02-24T12:57:04.318Z,84.45
2023-02-24T12:59:38.619Z,85.38
2023-02-24T13:02:19.773Z,84.19
2023-02-24T13:05:16.251Z,83.88
2023-02-24T13:07:53.388Z,84.62
2023-02-24T13:10:31.191Z,84.21
2023-02-24T13:13:30.489Z,84.08
2023-02-24T13:16:02.960Z,83.85
2023-02-24T13:18:36.419Z,83.53
2023-02-24T13:21:24.842Z,83.97
2023-02-24T13:23:59.999Z,83.91
2023-02-24T13:26:31.016Z,83.85
2023-02-24T13:29:01.111Z,84.07
2023-02-24T13:31:41.771Z,84.52
2023-02-24T13:34:22.233Z,84.99
2023-02-24T13:36:51.126Z,84.87
2023-02-24T13:39:33.716Z,85.03
2023-02-24T13:42:22.993Z,84.80
2023-02-24T13:45:09.513Z,84.65
2023-02-24T13:47:37.372Z,84.66
2023-02-24T13:50:05.761Z,84.38
2023-02-24T13:52:36.798Z,84.30
2023-02-24T13:55:20.434Z,83.70
2023-02-24T13:58:10.210Z,83.45
2023-02-24T14:00:59.195Z,83.52
2023-02-24T14:03:29.393Z,83.27
2023-02-24T14:05:59.445Z,84.04
2023-02-24T14:08:54.464Z,84.10
2023-02-24T14:11:28.571Z,84.09
2023-02-24T14:13:57.732Z,84.11
2023-02-24T14:16:32.852Z,84.35
2023-02-24T14:19:02.800Z,84.15
2023-02-24T14:21:33.832Z,83.90
2023-02-24T14:24:09.874Z,83.95
2023-02-24T14:26:44.578Z,84.13
2023-02-24T14:29:17.871Z,83.92
2023-02-24T14:32:05.378Z,84.08
2023-02-24T14:34:34.950Z,83.70
2023-02-24T14:37:04.259Z,83.91
2023-02-24T14:39:34.434Z,83.77
2023-02-24T14:42:09.839Z,83.36
2023-02-24T14:45:16.484Z,83.99
2023-02-24T14:47:44.639Z,84.59
2023-02-24T14:50:24.484Z,84.23
2023-02-24T14:53:10.072Z,84.40
2023-02-24T14:55:42.264Z,84.56
2023-02-24T14:58:52.519Z,84.57
2023-02-24T15:01:30.871Z,84.70
2023-02-24T15:04:10.470Z,84.41
2023-02-24T15:06:43.029Z,84.64
2023-02-24T15:09:19.344Z,84.65
2023-02-24T15:11:48.300Z,84.79
2023-02-24T15:14:32.729Z,84.64
2023-02-24T15:17:10.678Z,84.41
2023-02-24T15:19:49.366Z,84.42
2023-02-24T15:22:22.160Z,84.62
2023-02-24T15:24:52.160Z,84.66
2023-02-24T15:27:23.829Z,84.63
2023-02-24T15:30:27.512Z,84.60
2023-02-24T15:33:06.029Z,84.80
2023-02-24T15:35:39.317Z,84.76
2023-02-24T15:38:07.502Z,84.66
2023-02-24T15:40:35.972Z,84.51
2023-02-24T15:43:12.074Z,84.68
2023-02-24T15:45:40.416Z,84.85
2023-02-24T15:48:23.278Z,84.99
2023-02-24T15:50:51.317Z,85.10
2023-02-24T15:53:19.271Z,85.09
2023-02-24T15:55:47.341Z,85.09
2023-02-24T15:58:22.211Z,85.29
2023-02-24T16:00:52.671Z,85.33
2023-02-24T16:03:20.977Z,85.49
2023-02-24T16:05:48.980Z,85.66
2023-02-24T16:08:20.064Z,85.67
2023-02-24T16:10:50.579Z,85.75
2023-02-24T16:13:22.981Z,85.97
2023-02-24T16:15:51.888Z,85.83
2023-02-24T16:18:23.472Z,86.03
2023-02-24T16:20:57.164Z,86.04
2023-02-24T16:23:26.517Z,86.14
2023-02-24T16:25:59.834Z,86.50
2023-02-24T16:28:28.139Z,86.49
2023-02-24T16:30:56.306Z,86.62
2023-02-24T16:33:24.504Z,86.48
2023-02-24T16:35:55.703Z,86.67
2023-02-24T16:38:27.961Z,86.87
2023-02-24T16:40:56.554Z,87.03
2023-02-24T16:43:25.034Z,87.03
2023-02-24T16:45:55.909Z,87.32
2023-02-24T16:48:26.497Z,87.38
2023-02-24T16:50:54.779Z,87.40
2023-02-24T16:53:24.172Z,87.47
2023-02-24T16:55:52.567Z,87.62
2023-02-24T16:58:20.723Z,87.62
2023-02-24T17:00:50.755Z,87.85
2023-02-24T17:03:25.618Z,87.69
2023-02-24T17:05:54.679Z,87.71
2023-02-24T17:08:23.251Z,87.71
2023-02-24T17:10:52.014Z,87.63
2023-02-24T17:13:22.058Z,87.62
2023-02-24T17:15:57.124Z,87.71
2023-02-24T17:18:26.505Z,87.66
2023-02-24T17:20:54.979Z,87.41
2023-02-24T17:23:23.690Z,86.99
2023-02-24T17:25:58.646Z,86.63
2023-02-24T17:28:27.494Z,86.21
2023-02-24T17:30:55.631Z,85.45
2023-02-24T17:33:23.875Z,85.17
2023-02-24T17:35:52.010Z,85.18
2023-02-24T17:38:23.314Z,85.28
2023-02-24T17:40:51.361Z,85.19
2023-02-24T17:43:19.559Z,85.09
2023-02-24T17:45:48.077Z,85.44
2023-02-24T17:48:16.239Z,85.39
2023-02-24T17:50:45.919Z,85.26
2023-02-24T17:53:14.951Z,85.32
2023-02-24T17:56:00.954Z,85.08
2023-02-24T17:58:31.173Z,84.97
2023-02-24T18:01:02.116Z,84.91
2023-02-24T18:03:32.196Z,85.00
2023-02-24T18:06:07.027Z,84.67
2023-02-24T18:08:37.678Z,84.56
2023-02-24T18:11:07.280Z,84.45
2023-02-24T18:13:35.720Z,84.64
2023-02-24T18:16:09.269Z,84.47
2023-02-24T18:18:37.743Z,84.41
2023-02-24T18:21:07.102Z,84.29
2023-02-24T18:23:38.331Z,84.26
2023-02-24T18:26:08.203Z,84.01
2023-02-24T18:28:36.916Z,84.17
2023-02-24T18:31:14.049Z,84.15
2023-02-24T18:33:42.960Z,84.23
2023-02-24T18:36:12.068Z,84.65
2023-02-24T18:38:40.556Z,84.88
2023-02-24T18:41:12.476Z,84.91
2023-02-24T18:43:40.681Z,85.08
2023-02-24T18:46:13.419Z,85.03
2023-02-24T18:48:44.884Z,85.11
2023-02-24T18:51:18.844Z,85.43
2023-02-24T18:53:47.523Z,85.67
2023-02-24T18:56:18.494Z,85.76
2023-02-24T18:58:47.872Z,85.83
2023-02-24T19:01:20.612Z,85.73
2023-02-24T19:03:50.785Z,85.67
2023-02-24T19:06:21.419Z,85.71
2023-02-24T19:08:57.489Z,85.81
2023-02-24T19:11:26.312Z,85.64
2023-02-24T19:13:55.629Z,85.60
2023-02-24T19:16:23.943Z,85.35
2023-02-24T19:18:56.301Z,85.30
2023-02-24T19:21:27.466Z,85.02
2023-02-24T19:23:59.274Z,85.33
2023-02-24T19:26:28.474Z,85.02
2023-02-24T19:28:58.696Z,84.78
2023-02-24T19:31:29.668Z,84.88
2023-02-24T19:34:02.353Z,84.96
2023-02-24T19:36:32.933Z,84.83
2023-02-24T19:39:02.364Z,84.82
2023-02-24T19:41:31.442Z,84.96
2023-02-24T19:43:59.963Z,85.33
2023-02-24T19:46:35.342Z,85.32
2023-02-24T19:49:06.648Z,85.23
2023-02-24T19:51:34.592Z,85.60
2023-02-24T19:54:05.449Z,85.47
2023-02-24T19:56:36.269Z,85.46
2023-02-24T19:59:06.985Z,85.37
2023-02-24T20:01:35.391Z,85.53
2023-02-24T20:04:04.692Z,85.71
2023-02-24T20:06:38.985Z,85.80
2023-02-24T20:09:09.098Z,85.93
2023-02-24T20:11:39.182Z,85.67
2023-02-24T20:14:09.538Z,85.80
2023-02-24T20:16:39.604Z,85.95
2023-02-24T20:19:09.498Z,86.04
2023-02-24T20:21:38.738Z,85.84
2023-02-24T20:24:13.833Z,85.97
2023-02-24T20:26:47.195Z,85.79
2023-02-24T20:29:18.184Z,85.81
2023-02-24T20:31:47.871Z,85.67
2023-02-24T20:34:16.880Z,85.69
2023-02-24T20:36:45.437Z,85.36
2023-02-24T20:39:13.521Z,85.25
2023-02-24T20:41:42.190Z,85.69
2023-02-24T20:44:11.344Z,85.89
2023-02-24T20:46:39.586Z,85.91
2023-02-24T20:49:10.805Z,86.04
2023-02-24T20:51:39.005Z,86.05
2023-02-24T21:01:41.805Z,86.25
2023-02-24T21:04:12.757Z,86.24
2023-02-24T21:06:41.334Z,86.28
2023-02-24T21:09:11.995Z,86.70
2023-02-24T21:11:40.027Z,86.51
2023-02-24T21:14:08.196Z,86.66
2023-02-24T21:16:36.193Z,87.04
2023-02-24T21:19:04.441Z,87.00
2023-02-24T21:21:33.226Z,87.16
2023-02-24T21:24:01.214Z,87.16
2023-02-24T21:26:29.376Z,87.13
2023-02-24T21:28:58.809Z,87.58
2023-02-24T21:31:28.156Z,87.60
2023-02-24T21:33:56.881Z,87.48
2023-02-24T21:36:26.345Z,88.01
2023-02-24T21:38:55.273Z,87.77
2023-02-24T21:41:24.015Z,87.85
2023-02-24T21:43:55.202Z,88.18
2023-02-24T21:46:28.563Z,88.22
2023-02-24T21:48:58.774Z,88.23
2023-02-24T21:51:29.273Z,88.12
2023-02-24T21:53:57.957Z,88.33
2023-02-24T21:56:28.560Z,88.33
2023-02-24T21:59:01.879Z,88.41
2023-02-24T22:01:29.866Z,88.41
2023-02-24T22:04:00.040Z,88.44
2023-02-24T22:06:31.614Z,88.42
2023-02-24T22:09:02.423Z,88.61
2023-02-24T22:11:33.002Z,88.50
2023-02-24T22:14:01.833Z,88.64
2023-02-24T22:16:30.101Z,88.76
2023-02-24T22:18:58.286Z,88.66
2023-02-24T22:21:29.162Z,89.06
2023-02-24T22:24:00.228Z,88.57
2023-02-24T22:26:30.185Z,88.95
2023-02-24T22:28:59.271Z,88.77
2023-02-24T22:31:30.275Z,89.24
2023-02-24T22:33:59.045Z,89.36
2023-02-24T22:36:29.839Z,89.54
2023-02-24T22:38:59.263Z,89.65
2023-02-24T22:41:31.410Z,89.69
2023-02-24T22:44:00.622Z,89.75
2023-02-24T22:46:34.832Z,89.96
2023-02-24T22:49:03.109Z,90.17
2023-02-24T22:51:31.476Z,89.99
2023-02-24T22:53:59.547Z,90.07
2023-02-24T22:56:29.474Z,90.28
2023-02-24T22:58:58.664Z,90.02
2023-02-24T23:01:29.619Z,90.41
2023-02-24T23:04:05.896Z,90.63
2023-02-24T23:06:36.129Z,90.51
2023-02-24T23:09:05.885Z,90.26
2023-02-24T23:11:38.084Z,90.32
2023-02-24T23:14:10.200Z,90.43
2023-02-24T23:16:39.061Z,90.45
2023-02-24T23:19:12.200Z,90.85
2023-02-24T23:21:42.404Z,90.47
2023-02-24T23:24:11.764Z,90.65
2023-02-24T23:26:43.975Z,90.92
2023-02-24T23:29:15.233Z,90.74
2023-02-24T23:31:44.625Z,90.73
2023-02-24T23:34:13.452Z,90.80
2023-02-24T23:36:44.371Z,90.52
2023-02-24T23:39:14.930Z,90.45
2023-02-24T23:41:43.376Z,90.67
2023-02-24T23:44:12.919Z,90.58
2023-02-24T23:46:42.027Z,90.48
2023-02-24T23:49:10.187Z,90.64
2023-02-24T23:51:48.019Z,90.62
2023-02-24T23:54:18.515Z,90.33
2023-02-24T23:56:46.790Z,90.67
2023-02-24T23:59:15.451Z,90.98
